createdAt,value
2023-03-01T00:01:39.945Z,93.50
2023-03-01T00:04:07.860Z,93.24
2023-03-01T00:06:35.715Z,94.99
2023-03-01T00:09:03.578Z,95.05
2023-03-01T00:11:33.013Z,94.90
2023-03-01T00:14:05.801Z,94.67
2023-03-01T00:16:35.670Z,94.14
2023-03-01T00:19:04.484Z,93.99
2023-03-01T00:21:32.256Z,95.01
2023-03-01T00:24:00.618Z,94.38
2023-03-01T00:26:28.768Z,94.48
2023-03-01T00:28:58.668Z,95.41
2023-03-01T00:31:30.156Z,94.71
2023-03-01T00:33:59.810Z,95.33
2023-03-01T00:36:34.055Z,94.65
2023-03-01T00:39:02.449Z,94.92
2023-03-01T00:41:30.328Z,95.25
2023-03-01T00:43:58.335Z,95.19
2023-03-01T00:46:31.304Z,94.85
2023-03-01T00:48:59.370Z,96.09
2023-03-01T00:51:29.154Z,96.35
2023-03-01T00:53:58.585Z,96.60
2023-03-01T00:56:27.367Z,95.70
2023-03-01T00:58:55.132Z,95.94
2023-03-01T01:01:24.683Z,96.10
2023-03-01T01:03:56.048Z,95.80
2023-03-01T01:06:26.034Z,95.67
2023-03-01T01:08:54.973Z,95.85
2023-03-01T01:11:23.870Z,95.72
2023-03-01T01:13:52.027Z,95.69
2023-03-01T01:16:22.011Z,95.67
2023-03-01T01:18:49.904Z,95.59
2023-03-01T01:21:22.080Z,95.75
2023-03-01T01:23:50.405Z,96.30
2023-03-01T01:26:20.889Z,96.33
2023-03-01T01:28:49.169Z,96.56
2023-03-01T01:31:17.427Z,96.42
2023-03-01T01:33:45.591Z,96.53
2023-03-01T01:36:13.754Z,96.51
2023-03-01T01:38:43.369Z,96.35
2023-03-01T01:41:12.800Z,95.98
2023-03-01T01:43:43.277Z,96.05
2023-03-01T01:46:21.469Z,96.44
2023-03-01T01:48:54.542Z,96.42
2023-03-01T01:51:26.196Z,96.22
2023-03-01T01:53:58.918Z,95.79
2023-03-01T01:56:31.093Z,95.74
2023-03-01T01:58:59.578Z,95.22
2023-03-01T02:01:27.585Z,95.23
2023-03-01T02:03:55.408Z,95.03
2023-03-01T02:06:30.392Z,95.21
2023-03-01T02:09:03.955Z,95.58
2023-03-01T02:11:33.394Z,96.09
2023-03-01T02:14:01.564Z,96.61
2023-03-01T02:16:30.363Z,96.49
2023-03-01T02:18:59.110Z,96.46
2023-03-01T02:21:39.324Z,96.72
2023-03-01T02:24:28.702Z,97.31
2023-03-01T02:26:59.770Z,97.35
2023-03-01T02:29:30.278Z,97.17
2023-03-01T02:32:00.405Z,97.31
2023-03-01T02:34:30.107Z,97.59
2023-03-01T02:37:02.046Z,97.54
2023-03-01T02:39:34.658Z,97.63
2023-03-01T02:42:04.764Z,97.75
2023-03-01T02:44:33.943Z,97.25
2023-03-01T02:47:04.926Z,97.08
2023-03-01T02:49:35.588Z,97.38
2023-03-01T02:52:29.308Z,97.47
2023-03-01T02:55:02.595Z,97.48
2023-03-01T02:57:33.155Z,97.32
2023-03-01T03:00:09.126Z,97.58
2023-03-01T03:02:38.125Z,97.40
2023-03-01T03:05:09.339Z,97.32
2023-03-01T03:07:38.568Z,97.32
2023-03-01T03:10:12.262Z,97.50
2023-03-01T03:12:40.108Z,97.65
2023-03-01T03:15:11.096Z,97.72
2023-03-01T03:17:39.005Z,97.56
2023-03-01T03:20:11.894Z,97.68
2023-03-01T03:22:40.446Z,97.83
2023-03-01T03:25:11.327Z,97.41
2023-03-01T03:27:39.619Z,97.63
2023-03-01T03:30:13.282Z,97.18
2023-03-01T03:32:40.966Z,97.19
2023-03-01T03:35:11.265Z,97.16
2023-03-01T03:37:57.429Z,97.01
2023-03-01T03:40:25.377Z,97.00
2023-03-01T03:42:53.094Z,96.75
2023-03-01T03:45:22.210Z,96.47
2023-03-01T03:47:51.039Z,96.17
2023-03-01T03:50:20.044Z,96.31
2023-03-01T03:52:47.810Z,96.19
2023-03-01T03:55:20.230Z,96.35
2023-03-01T03:57:52.494Z,95.81
2023-03-01T04:00:24.810Z,95.47
2023-03-01T04:02:57.587Z,95.19
2023-03-01T04:05:25.718Z,94.87
2023-03-01T04:08:01.957Z,94.75
2023-03-01T04:10:31.621Z,94.48
2023-03-01T04:12:59.668Z,94.24
2023-03-01T04:15:29.476Z,94.33
2023-03-01T04:17:57.683Z,94.29
2023-03-01T04:20:29.313Z,94.25
2023-03-01T04:23:01.096Z,94.25
2023-03-01T04:25:28.907Z,93.97
2023-03-01T04:27:56.600Z,93.84
2023-03-01T04:30:26.335Z,94.06
2023-03-01T04:32:55.463Z,93.81
2023-03-01T04:35:23.498Z,93.76
2023-03-01T04:37:51.909Z,93.54
2023-03-01T04:40:19.735Z,93.58
2023-03-01T04:42:48.246Z,93.88
2023-03-01T04:45:16.099Z,93.19
2023-03-01T04:47:45.404Z,93.32
2023-03-01T04:50:17.512Z,93.39
2023-03-01T04:52:46.931Z,93.01
2023-03-01T04:55:15.174Z,93.29
2023-03-01T04:57:43.240Z,93.04
2023-03-01T05:00:21.910Z,92.52
2023-03-01T05:02:54.350Z,92.43
2023-03-01T05:05:30.215Z,92.89
2023-03-01T05:07:59.317Z,92.95
2023-03-01T05:10:30.012Z,92.67
2023-03-01T05:12:58.560Z,92.50
2023-03-01T05:15:27.699Z,92.32
2023-03-01T05:17:56.316Z,92.04
2023-03-01T05:20:25.009Z,92.46
2023-03-01T05:23:00.524Z,92.64
2023-03-01T05:25:34.005Z,92.41
2023-03-01T05:28:05.231Z,93.02
2023-03-01T05:30:33.731Z,93.00
2023-03-01T05:33:02.282Z,93.19
2023-03-01T05:35:33.517Z,93.49
2023-03-01T05:38:02.687Z,93.08
2023-03-01T05:40:30.414Z,93.03
2023-03-01T05:42:58.939Z,93.06
2023-03-01T05:45:28.787Z,92.73
2023-03-01T05:47:56.522Z,93.34
2023-03-01T05:50:26.292Z,93.70
2023-03-01T05:52:59.037Z,93.49
2023-03-01T05:55:29.448Z,93.36
2023-03-01T05:57:57.629Z,93.19
2023-03-01T06:00:25.565Z,92.37
2023-03-01T06:02:53.417Z,92.50
2023-03-01T06:05:21.183Z,92.43
2023-03-01T06:07:48.964Z,92.74
2023-03-01T06:10:17.145Z,92.53
2023-03-01T06:12:46.311Z,92.42
2023-03-01T06:15:15.159Z,92.40
2023-03-01T06:17:45.436Z,92.59
2023-03-01T06:20:15.673Z,92.21
2023-03-01T06:22:43.642Z,92.42
2023-03-01T06:25:13.436Z,91.96
2023-03-01T06:27:41.667Z,91.98
2023-03-01T06:30:16.898Z,91.89
2023-03-01T06:32:44.734Z,91.48
2023-03-01T06:35:14.036Z,91.44
2023-03-01T06:37:42.561Z,91.37
2023-03-01T06:40:12.665Z,91.32
2023-03-01T06:42:41.952Z,91.13
2023-03-01T06:45:13.160Z,90.92
2023-03-01T06:47:40.917Z,90.69
2023-03-01T06:50:09.728Z,90.66
2023-03-01T06:52:37.704Z,90.57
2023-03-01T06:55:06.484Z,90.57
2023-03-01T06:57:34.224Z,90.36
2023-03-01T07:00:01.951Z,90.51
2023-03-01T07:02:31.046Z,90.23
2023-03-01T07:04:58.839Z,90.11
2023-03-01T07:07:26.662Z,90.66
2023-03-01T07:09:55.328Z,90.58
2023-03-01T07:12:23.215Z,90.55
2023-03-01T07:14:50.954Z,90.57
2023-03-01T07:17:19.761Z,90.48
2023-03-01T07:19:48.914Z,90.92
2023-03-01T07:22:16.744Z,90.83
2023-03-01T07:24:44.927Z,91.01
2023-03-01T07:27:13.013Z,91.10
2023-03-01T07:29:40.776Z,91.02
2023-03-01T07:32:09.015Z,91.42
2023-03-01T07:34:36.818Z,91.69
2023-03-01T07:37:05.949Z,91.89
2023-03-01T07:39:33.697Z,92.45
2023-03-01T07:42:01.489Z,92.93
2023-03-01T07:44:29.464Z,93.30
2023-03-01T07:46:59.088Z,93.73
2023-03-01T07:49:27.480Z,94.35
2023-03-01T07:51:55.416Z,94.79
2023-03-01T07:54:24.523Z,95.52
2023-03-01T07:56:52.415Z,95.38
2023-03-01T07:59:20.162Z,96.06
2023-03-01T08:01:47.892Z,97.25
2023-03-01T08:04:15.675Z,97.76
2023-03-01T08:06:43.384Z,98.21
2023-03-01T08:09:11.134Z,98.47
2023-03-01T08:11:40.256Z,99.08
2023-03-01T08:14:08.465Z,98.77
2023-03-01T08:16:37.037Z,99.06
2023-03-01T08:19:06.644Z,98.18
2023-03-01T08:21:35.731Z,98.20
2023-03-01T08:24:04.026Z,98.16
2023-03-01T08:26:32.464Z,98.10
2023-03-01T08:29:02.070Z,97.13
2023-03-01T08:31:31.915Z,96.93
2023-03-01T08:34:02.200Z,97.01
2023-03-01T08:36:32.663Z,97.23
2023-03-01T08:39:00.870Z,96.78
2023-03-01T08:41:28.928Z,96.44
2023-03-01T08:43:59.797Z,95.88
2023-03-01T08:46:30.678Z,94.98
2023-03-01T08:48:58.568Z,94.66
2023-03-01T08:51:27.960Z,92.46
2023-03-01T08:53:55.784Z,89.71
2023-03-01T08:56:23.551Z,87.98
2023-03-01T08:58:51.419Z,85.87
2023-03-01T09:01:20.980Z,86.20
2023-03-01T09:03:50.224Z,85.21
2023-03-01T09:06:18.573Z,85.42
2023-03-01T09:08:50.055Z,84.77
2023-03-01T09:11:20.368Z,81.89
2023-03-01T09:13:49.749Z,81.16
2023-03-01T09:16:20.162Z,79.55
2023-03-01T09:18:53.248Z,78.57
2023-03-01T09:21:38.653Z,78.40
2023-03-01T09:24:09.166Z,76.86
2023-03-01T09:26:36.955Z,76.38
2023-03-01T09:29:04.848Z,76.55
2023-03-01T09:31:32.667Z,73.32
2023-03-01T09:34:01.860Z,75.30
2023-03-01T09:36:30.334Z,73.85
2023-03-01T09:39:00.170Z,70.84
2023-03-01T09:41:45.792Z,70.86
2023-03-01T09:44:22.942Z,70.41
2023-03-01T09:46:51.005Z,69.33
2023-03-01T09:49:23.315Z,69.42
2023-03-01T09:51:59.410Z,67.27
2023-03-01T09:54:27.256Z,69.34
2023-03-01T09:57:12.591Z,69.20
2023-03-01T09:59:53.854Z,67.79
2023-03-01T10:02:28.926Z,68.61
2023-03-01T10:05:07.527Z,67.47
2023-03-01T10:07:44.863Z,67.14
2023-03-01T10:10:23.304Z,67.32
2023-03-01T10:12:51.580Z,67.18
2023-03-01T10:15:24.353Z,67.66
2023-03-01T10:17:55.194Z,60.47
2023-03-01T10:20:26.231Z,61.43
2023-03-01T10:22:56.222Z,59.14
2023-03-01T10:25:44.112Z,58.26
2023-03-01T10:28:18.677Z,60.13
2023-03-01T10:30:47.527Z,59.13
2023-03-01T10:33:20.813Z,57.92
2023-03-01T10:35:50.456Z,58.33
2023-03-01T10:38:21.384Z,58.51
2023-03-01T10:40:55.581Z,59.60
2023-03-01T10:43:24.179Z,56.35
2023-03-01T10:45:52.578Z,56.95
2023-03-01T10:48:24.642Z,55.09
2023-03-01T10:51:08.471Z,54.71
2023-03-01T10:53:39.076Z,54.91
2023-03-01T10:56:09.882Z,54.53
2023-03-01T10:58:40.467Z,53.47
2023-03-01T11:01:25.861Z,52.65
2023-03-01T11:04:11.955Z,53.33
2023-03-01T11:06:42.800Z,52.98
2023-03-01T11:09:18.213Z,51.80
2023-03-01T11:11:46.882Z,52.29
2023-03-01T11:14:27.552Z,52.77
2023-03-01T11:17:04.103Z,51.67
2023-03-01T11:19:32.208Z,52.13
2023-03-01T11:22:05.488Z,51.95
2023-03-01T11:24:42.453Z,51.63
2023-03-01T11:27:18.853Z,50.46
2023-03-01T11:29:52.113Z,50.35
2023-03-01T11:32:23.363Z,50.08
2023-03-01T11:34:58.639Z,50.26
2023-03-01T11:37:37.080Z,50.27
2023-03-01T11:40:15.308Z,51.21
2023-03-01T11:42:54.164Z,50.83
2023-03-01T11:45:26.770Z,50.24
2023-03-01T11:48:15.882Z,48.87
2023-03-01T11:50:48.210Z,49.43
2023-03-01T11:53:46.083Z,46.81
2023-03-01T11:56:23.858Z,46.70
2023-03-01T11:59:23.903Z,46.71
2023-03-01T12:02:16.525Z,46.38
2023-03-01T12:05:00.245Z,46.32
2023-03-01T12:07:33.589Z,47.53
2023-03-01T12:10:22.754Z,45.93
2023-03-01T12:13:06.700Z,47.09
2023-03-01T12:15:55.058Z,46.57
2023-03-01T12:18:41.958Z,46.95
2023-03-01T12:21:21.406Z,46.75
2023-03-01T12:24:06.853Z,47.69
2023-03-01T12:26:38.188Z,46.88
2023-03-01T12:29:28.087Z,46.70
2023-03-01T12:32:21.493Z,46.28
2023-03-01T12:35:04.981Z,47.43
2023-03-01T12:37:43.783Z,47.45
2023-03-01T12:40:44.261Z,46.53
2023-03-01T12:43:28.912Z,47.20
2023-03-01T12:46:12.697Z,46.00
2023-03-01T12:48:49.935Z,46.07
2023-03-01T12:51:22.706Z,46.25
2023-03-01T12:53:52.870Z,47.28
2023-03-01T12:56:24.824Z,47.03
2023-03-01T12:59:04.460Z,46.34
2023-03-01T13:01:44.334Z,46.60
2023-03-01T13:04:35.384Z,47.08
2023-03-01T13:07:27.047Z,46.83
2023-03-01T13:10:06.566Z,46.77
2023-03-01T13:12:55.032Z,44.13
2023-03-01T13:15:38.358Z,44.56
2023-03-01T13:18:32.025Z,43.81
2023-03-01T13:21:02.457Z,42.38
2023-03-01T13:23:33.911Z,42.03
2023-03-01T13:26:12.844Z,41.20
2023-03-01T13:29:03.330Z,39.62
2023-03-01T13:32:02.630Z,39.10
2023-03-01T13:35:02.628Z,38.25
2023-03-01T13:37:33.762Z,39.57
2023-03-01T13:40:06.614Z,40.07
2023-03-01T13:42:41.605Z,41.06
2023-03-01T13:45:22.847Z,39.28
2023-03-01T13:47:55.800Z,39.60
2023-03-01T13:50:27.141Z,39.85
2023-03-01T13:53:00.161Z,39.43
2023-03-01T13:55:37.576Z,40.15
2023-03-01T13:58:16.826Z,39.99
2023-03-01T14:00:44.760Z,39.16
2023-03-01T14:03:15.890Z,39.93
2023-03-01T14:06:12.843Z,39.68
2023-03-01T14:08:42.460Z,39.39
2023-03-01T14:11:42.598Z,40.01
2023-03-01T14:14:27.993Z,39.93
2023-03-01T14:17:03.099Z,40.26
2023-03-01T14:19:34.137Z,38.76
2023-03-01T14:22:14.567Z,39.03
2023-03-01T14:24:48.705Z,38.92
2023-03-01T14:27:17.196Z,39.89
2023-03-01T14:29:45.465Z,38.83
2023-03-01T14:32:19.868Z,39.92
2023-03-01T14:34:49.730Z,38.95
2023-03-01T14:37:24.995Z,39.97
2023-03-01T14:39:53.347Z,39.12
2023-03-01T14:42:22.805Z,39.37
2023-03-01T14:44:53.696Z,39.80
2023-03-01T14:47:29.160Z,39.75
2023-03-01T14:50:01.541Z,39.42
2023-03-01T14:52:37.084Z,39.79
2023-03-01T14:55:07.691Z,39.38
2023-03-01T14:57:35.461Z,39.17
2023-03-01T15:00:06.302Z,41.03
2023-03-01T15:02:35.070Z,39.65
2023-03-01T15:05:08.618Z,40.02
2023-03-01T15:07:41.848Z,40.65
2023-03-01T15:10:21.510Z,40.65
2023-03-01T15:12:49.825Z,40.28
2023-03-01T15:15:41.435Z,41.20
2023-03-01T15:18:18.790Z,41.86
2023-03-01T15:20:47.190Z,41.95
2023-03-01T15:23:29.452Z,40.93
2023-03-01T15:25:58.657Z,42.22
2023-03-01T15:28:28.840Z,42.02
2023-03-01T15:31:00.802Z,42.41
2023-03-01T15:33:38.879Z,40.43
2023-03-01T15:36:45.741Z,40.71
2023-03-01T15:39:38.154Z,41.11
2023-03-01T15:42:11.050Z,40.25
2023-03-01T15:44:44.029Z,40.38
2023-03-01T15:47:26.701Z,39.60
2023-03-01T15:49:56.304Z,40.29
2023-03-01T15:52:30.143Z,39.71
2023-03-01T15:55:00.891Z,40.39
2023-03-01T15:57:28.865Z,40.89
2023-03-01T15:59:56.698Z,40.78
2023-03-01T16:02:25.800Z,41.73
2023-03-01T16:04:54.671Z,41.94
2023-03-01T16:07:22.527Z,42.14
2023-03-01T16:09:50.264Z,42.60
2023-03-01T16:12:21.479Z,43.44
2023-03-01T16:14:49.846Z,43.39
2023-03-01T16:17:17.643Z,42.42
2023-03-01T16:19:45.445Z,42.03
2023-03-01T16:22:13.260Z,42.90
2023-03-01T16:24:41.887Z,42.84
2023-03-01T16:27:09.652Z,43.34
2023-03-01T16:29:38.749Z,44.16
2023-03-01T16:32:07.164Z,43.99
2023-03-01T16:34:35.033Z,44.23
2023-03-01T16:37:02.878Z,44.37
2023-03-01T16:39:30.736Z,44.34
2023-03-01T16:41:58.523Z,45.04
2023-03-01T16:44:26.247Z,45.61
2023-03-01T16:46:55.324Z,45.66
2023-03-01T16:49:23.088Z,45.57
2023-03-01T16:51:50.843Z,45.98
2023-03-01T16:54:19.070Z,45.43
2023-03-01T16:56:46.807Z,45.30
2023-03-01T16:59:15.052Z,45.52
2023-03-01T17:01:42.884Z,46.67
2023-03-01T17:04:13.962Z,46.15
2023-03-01T17:06:41.765Z,46.08
2023-03-01T17:09:10.418Z,45.60
2023-03-01T17:11:38.193Z,46.40
2023-03-01T17:14:06.082Z,46.41
2023-03-01T17:16:33.929Z,46.56
2023-03-01T17:19:01.748Z,46.54
2023-03-01T17:21:31.711Z,45.96
2023-03-01T17:24:00.371Z,46.55
2023-03-01T17:26:29.267Z,45.91
2023-03-01T17:28:57.312Z,46.70
2023-03-01T17:31:25.330Z,46.38
2023-03-01T17:33:53.127Z,46.63
2023-03-01T17:36:20.886Z,48.15
2023-03-01T17:38:50.182Z,49.24
2023-03-01T17:41:19.003Z,48.95
2023-03-01T17:43:47.008Z,49.96
2023-03-01T17:46:15.161Z,49.34
2023-03-01T17:48:42.968Z,50.01
2023-03-01T17:51:12.555Z,49.79
2023-03-01T17:53:40.353Z,49.94
2023-03-01T17:56:10.212Z,49.92
2023-03-01T17:58:39.345Z,50.23
2023-03-01T18:01:12.611Z,50.10
2023-03-01T18:03:41.094Z,50.10
2023-03-01T18:06:13.579Z,50.54
2023-03-01T18:08:41.491Z,49.95
2023-03-01T18:11:10.630Z,50.55
2023-03-01T18:13:39.844Z,50.73
2023-03-01T18:16:09.164Z,51.56
2023-03-01T18:18:37.326Z,51.55
2023-03-01T18:21:06.154Z,51.97
2023-03-01T18:23:35.759Z,52.04
2023-03-01T18:26:06.353Z,52.47
2023-03-01T18:28:35.793Z,52.68
2023-03-01T18:31:05.689Z,53.10
2023-03-01T18:33:33.827Z,53.25
2023-03-01T18:36:02.104Z,53.93
2023-03-01T18:38:30.851Z,53.98
2023-03-01T18:40:58.687Z,54.10
2023-03-01T18:43:28.859Z,54.04
2023-03-01T18:46:01.834Z,54.06
2023-03-01T18:48:30.074Z,54.50
2023-03-01T18:50:57.956Z,54.86
2023-03-01T18:53:35.853Z,54.99
2023-03-01T18:56:04.022Z,55.03
2023-03-01T18:58:31.839Z,54.89
2023-03-01T19:01:00.110Z,54.78
2023-03-01T19:03:28.821Z,55.06
2023-03-01T19:05:57.017Z,55.74
2023-03-01T19:08:24.801Z,55.49
2023-03-01T19:10:58.976Z,56.26
2023-03-01T19:13:27.377Z,55.60
2023-03-01T19:16:04.561Z,56.20
2023-03-01T19:18:32.418Z,56.19
2023-03-01T19:21:04.108Z,56.29
2023-03-01T19:23:34.927Z,56.93
2023-03-01T19:26:06.596Z,56.84
2023-03-01T19:28:36.063Z,56.86
2023-03-01T19:31:07.460Z,57.26
2023-03-01T19:33:36.461Z,57.14
2023-03-01T19:36:05.267Z,57.55
2023-03-01T19:38:33.217Z,57.44
2023-03-01T19:41:07.634Z,57.21
2023-03-01T19:43:35.495Z,57.61
2023-03-01T19:46:03.553Z,57.59
2023-03-01T19:48:31.530Z,58.47
2023-03-01T19:50:59.551Z,58.18
2023-03-01T19:53:27.653Z,58.07
2023-03-01T19:55:59.375Z,58.49
2023-03-01T19:58:29.422Z,58.38
2023-03-01T20:00:58.935Z,59.11
2023-03-01T20:03:27.342Z,58.65
2023-03-01T20:05:56.559Z,59.35
2023-03-01T20:08:24.649Z,58.98
2023-03-01T20:10:52.888Z,60.10
2023-03-01T20:13:21.622Z,59.79
2023-03-01T20:15:50.924Z,59.78
2023-03-01T20:18:18.712Z,60.12
2023-03-01T20:20:49.902Z,59.78
2023-03-01T20:23:18.184Z,59.73
2023-03-01T20:25:46.284Z,59.71
2023-03-01T20:28:14.023Z,59.13
2023-03-01T20:30:42.530Z,59.28
2023-03-01T20:33:11.935Z,60.30
2023-03-01T20:35:42.541Z,60.03
2023-03-01T20:38:10.446Z,59.95
2023-03-01T20:40:39.046Z,59.92
2023-03-01T20:43:06.848Z,60.84
2023-03-01T20:45:34.626Z,60.66
2023-03-01T20:48:02.390Z,60.13
2023-03-01T20:50:31.561Z,60.21
2023-03-01T20:52:59.282Z,61.11
2023-03-01T20:55:27.051Z,60.58
2023-03-01T20:57:54.779Z,60.46
2023-03-01T21:00:22.681Z,60.47
2023-03-01T21:02:50.453Z,60.91
2023-03-01T21:05:19.798Z,61.15
2023-03-01T21:07:48.900Z,61.17
2023-03-01T21:10:17.281Z,61.84
2023-03-01T21:12:45.161Z,62.46
2023-03-01T21:15:23.489Z,62.01
2023-03-01T21:17:55.999Z,62.69
2023-03-01T21:20:24.020Z,62.18
2023-03-01T21:22:53.210Z,62.59
2023-03-01T21:25:20.974Z,62.77
2023-03-01T21:27:48.711Z,63.33
2023-03-01T21:30:17.154Z,63.48
2023-03-01T21:32:44.929Z,64.26
2023-03-01T21:35:13.340Z,64.26
2023-03-01T21:37:41.476Z,64.94
2023-03-01T21:40:11.919Z,65.39
2023-03-01T21:42:40.569Z,65.02
2023-03-01T21:45:09.027Z,65.03
2023-03-01T21:47:36.830Z,65.39
2023-03-01T21:50:05.008Z,65.42
2023-03-01T21:52:32.756Z,66.23
2023-03-01T21:55:02.979Z,66.65
2023-03-01T21:57:32.132Z,65.75
2023-03-01T21:59:59.870Z,66.83
2023-03-01T22:02:27.680Z,66.77
2023-03-01T22:04:57.571Z,66.86
2023-03-01T22:07:25.390Z,66.98
2023-03-01T22:09:53.195Z,67.65
2023-03-01T22:12:21.017Z,67.15
2023-03-01T22:14:50.130Z,68.60
2023-03-01T22:17:18.023Z,67.49
2023-03-01T22:19:46.359Z,68.96
2023-03-01T22:22:14.065Z,69.29
2023-03-01T22:24:41.799Z,69.04
2023-03-01T22:27:09.536Z,68.73
2023-03-01T22:29:37.529Z,68.69
2023-03-01T22:32:07.008Z,69.62
2023-03-01T22:34:35.808Z,68.80
2023-03-01T22:37:03.755Z,69.38
2023-03-01T22:39:31.470Z,69.84
2023-03-01T22:41:59.211Z,70.09
2023-03-01T22:44:27.762Z,70.13
2023-03-01T22:46:55.477Z,69.86
2023-03-01T22:49:25.539Z,69.97
2023-03-01T22:51:53.353Z,70.82
2023-03-01T22:54:22.059Z,70.59
2023-03-01T22:56:50.050Z,70.99
2023-03-01T22:59:20.033Z,70.84
2023-03-01T23:01:48.457Z,71.38
2023-03-01T23:04:16.774Z,72.40
2023-03-01T23:06:51.879Z,72.38
2023-03-01T23:09:21.798Z,72.50
2023-03-01T23:11:50.630Z,72.70
2023-03-01T23:14:19.334Z,72.57
2023-03-01T23:16:47.150Z,73.70
2023-03-01T23:19:16.470Z,73.51
2023-03-01T23:21:48.563Z,73.64
2023-03-01T23:24:17.175Z,73.88
2023-03-01T23:26:45.784Z,74.33
2023-03-01T23:29:13.959Z,74.12
2023-03-01T23:31:41.784Z,74.71
2023-03-01T23:34:09.542Z,75.24
2023-03-01T23:36:44.800Z,74.57
2023-03-01T23:39:14.925Z,74.68
2023-03-01T23:41:42.907Z,74.88
2023-03-01T23:44:15.529Z,75.20
2023-03-01T23:46:44.129Z,74.76
2023-03-01T23:49:12.974Z,74.95
2023-03-01T23:51:41.740Z,75.90
2023-03-01T23:54:10.635Z,76.82
2023-03-01T23:56:41.821Z,77.64
2023-03-01T23:59:13.283Z,77.96
